Accueil
METAR-TAF:

METAR-TAF

Aéroports :

Hofu, Japon

latitude: 34-02N, longitude: 131-33E, altitude: 2 m

Observation

Le bulletin a été fait il y a 5 heures et 32 minutes, à 01:20 UTC
Vent 8 kt de est, variant entre est/nord-est et sud-est
Température 30°C
Humidité 75%
Pression 1009 hPa
Visibilité 10 km ou plus
Quelques nuages à une hauteur de 1000 ft
Nuages épars à une hauteur de 1500 ft
Nuages fragmentés à une hauteur de 25000 ft

METAR: RJOF 250120Z 10008KT 070V130 9999 FEW010 SCT015 BKN250 30/25 Q1009 RMK 1ST010 3CU015 A2980 WIND EST

Heure: 15:52 (06:52 UTC)


TAF: absent

Observations et prévisions météorologiques de plus de 4000 aéroports (messages METAR et TAF).

Les stations disponibles sont représentées par des disques jaunes et rouges sur la carte.

Passer la souris dessus pour voir le nom de la station.

Cliquer dessus pour voir les observations et prévisions météorologiques.

Pour changer de carte: cliquez sur les boutons verts avec une croix noire pour zoomer, sur le bouton vert avec un tiret pour effectuer un zoom arrière, ou sur les flèches vertes pour les cartes adjacentes.


METAR-TAF: